sensor_id;sensor_type;location;lat;lon;timestamp;temperature;humidity
15357;DHT22;7778;48.792;9.260;2022-12-29T00:01:23;9.10;99.90
15357;DHT22;7778;48.792;9.260;2022-12-29T00:04:12;9.20;99.90
15357;DHT22;7778;48.792;9.260;2022-12-29T00:06:58;9.10;99.90
15357;DHT22;7778;48.792;9.260;2022-12-29T00:09:44;9.30;99.90
15357;DHT22;7778;48.792;9.260;2022-12-29T00:12:29;9.30;99.90
15357;DHT22;7778;48.792;9.260;2022-12-29T00:15:37;9.30;99.90
15357;DHT22;7778;48.792;9.260;2022-12-29T00:18:21;9.40;99.90
15357;DHT22;7778;48.792;9.260;2022-12-29T00:21:07;9.50;99.90
15357;DHT22;7778;48.792;9.260;2022-12-29T00:24:14;9.60;99.90
15357;DHT22;7778;48.792;9.260;2022-12-29T00:27:19;9.60;99.90
15357;DHT22;7778;48.792;9.260;2022-12-29T00:30:23;9.60;99.90
15357;DHT22;7778;48.792;9.260;2022-12-29T00:33:29;9.60;99.90
15357;DHT22;7778;48.792;9.260;2022-12-29T00:36:35;9.60;99.90
15357;DHT22;7778;48.792;9.260;2022-12-29T00:39:22;9.70;99.90
15357;DHT22;7778;48.792;9.260;2022-12-29T00:42:26;9.70;99.90
15357;DHT22;7778;48.792;9.260;2022-12-29T00:45:29;9.70;99.90
15357;DHT22;7778;48.792;9.260;2022-12-29T00:48:15;9.80;99.90
15357;DHT22;7778;48.792;9.260;2022-12-29T00:51:22;9.80;99.90
15357;DHT22;7778;48.792;9.260;2022-12-29T00:54:07;9.80;99.90
15357;DHT22;7778;48.792;9.260;2022-12-29T00:56:53;9.90;99.90
15357;DHT22;7778;48.792;9.260;2022-12-29T00:59:40;9.90;99.90
15357;DHT22;7778;48.792;9.260;2022-12-29T01:02:27;10.10;99.90
15357;DHT22;7778;48.792;9.260;2022-12-29T01:05:13;10.20;99.90
15357;DHT22;7778;48.792;9.260;2022-12-29T01:08:00;10.00;99.90
15357;DHT22;7778;48.792;9.260;2022-12-29T01:10:46;9.90;99.90
15357;DHT22;7778;48.792;9.260;2022-12-29T01:13:31;9.80;99.90
15357;DHT22;7778;48.792;9.260;2022-12-29T01:16:17;9.90;99.90
15357;DHT22;7778;48.792;9.260;2022-12-29T01:19:03;9.80;99.90
15357;DHT22;7778;48.792;9.260;2022-12-29T01:21:49;9.80;99.90
15357;DHT22;7778;48.792;9.260;2022-12-29T01:24:36;9.80;99.90
15357;DHT22;7778;48.792;9.260;2022-12-29T01:27:22;9.80;99.90
15357;DHT22;7778;48.792;9.260;2022-12-29T01:30:08;9.80;99.90
15357;DHT22;7778;48.792;9.260;2022-12-29T01:32:54;9.80;99.90
15357;DHT22;7778;48.792;9.260;2022-12-29T01:35:40;9.90;99.90
15357;DHT22;7778;48.792;9.260;2022-12-29T01:38:25;9.90;99.90
15357;DHT22;7778;48.792;9.260;2022-12-29T01:41:14;10.00;99.90
15357;DHT22;7778;48.792;9.260;2022-12-29T01:44:00;10.00;99.90
15357;DHT22;7778;48.792;9.260;2022-12-29T01:46:48;10.10;99.90
15357;DHT22;7778;48.792;9.260;2022-12-29T01:49:35;10.10;99.90
15357;DHT22;7778;48.792;9.260;2022-12-29T01:52:22;10.10;99.90
15357;DHT22;7778;48.792;9.260;2022-12-29T01:55:11;10.30;99.90
15357;DHT22;7778;48.792;9.260;2022-12-29T01:58:01;10.20;99.90
15357;DHT22;7778;48.792;9.260;2022-12-29T02:00:49;10.20;99.90
15357;DHT22;7778;48.792;9.260;2022-12-29T02:03:37;10.30;99.90
15357;DHT22;7778;48.792;9.260;2022-12-29T02:06:25;10.40;99.90
15357;DHT22;7778;48.792;9.260;2022-12-29T02:09:12;10.40;99.90
15357;DHT22;7778;48.792;9.260;2022-12-29T02:11:59;10.40;99.90
15357;DHT22;7778;48.792;9.260;2022-12-29T02:14:47;10.60;99.90
15357;DHT22;7778;48.792;9.260;2022-12-29T02:17:57;10.50;99.90
15357;DHT22;7778;48.792;9.260;2022-12-29T02:21:29;10.50;99.90
15357;DHT22;7778;48.792;9.260;2022-12-29T02:28:22;10.60;99.90
15357;DHT22;7778;48.792;9.260;2022-12-29T02:31:31;10.70;99.90
15357;DHT22;7778;48.792;9.260;2022-12-29T02:34:24;10.90;99.90
15357;DHT22;7778;48.792;9.260;2022-12-29T02:37:20;10.70;99.90
15357;DHT22;7778;48.792;9.260;2022-12-29T02:40:18;10.90;99.90
15357;DHT22;7778;48.792;9.260;2022-12-29T02:43:16;10.70;99.90
15357;DHT22;7778;48.792;9.260;2022-12-29T02:46:12;10.70;99.90
15357;DHT22;7778;48.792;9.260;2022-12-29T02:49:10;10.70;99.90
15357;DHT22;7778;48.792;9.260;2022-12-29T02:52:02;10.70;99.90
15357;DHT22;7778;48.792;9.260;2022-12-29T02:54:53;10.70;99.90
15357;DHT22;7778;48.792;9.260;2022-12-29T02:57:39;10.70;99.90
15357;DHT22;7778;48.792;9.260;2022-12-29T03:00:24;10.60;99.90
15357;DHT22;7778;48.792;9.260;2022-12-29T03:03:19;10.70;99.90
15357;DHT22;7778;48.792;9.260;2022-12-29T03:06:25;10.70;99.90
15357;DHT22;7778;48.792;9.260;2022-12-29T03:09:23;10.70;99.90
15357;DHT22;7778;48.792;9.260;2022-12-29T03:12:19;10.70;99.90
15357;DHT22;7778;48.792;9.260;2022-12-29T03:15:12;10.70;99.90
15357;DHT22;7778;48.792;9.260;2022-12-29T03:18:22;10.70;99.90
15357;DHT22;7778;48.792;9.260;2022-12-29T03:21:12;10.60;99.90
15357;DHT22;7778;48.792;9.260;2022-12-29T03:24:03;10.50;99.90
15357;DHT22;7778;48.792;9.260;2022-12-29T03:26:51;10.50;99.90
15357;DHT22;7778;48.792;9.260;2022-12-29T03:29:41;10.50;99.90
15357;DHT22;7778;48.792;9.260;2022-12-29T03:32:32;10.60;99.90
15357;DHT22;7778;48.792;9.260;2022-12-29T03:35:21;10.50;99.90
15357;DHT22;7778;48.792;9.260;2022-12-29T03:38:16;10.50;99.90
15357;DHT22;7778;48.792;9.260;2022-12-29T03:41:08;10.50;99.90
15357;DHT22;7778;48.792;9.260;2022-12-29T03:43:56;10.50;99.90
15357;DHT22;7778;48.792;9.260;2022-12-29T03:46:42;10.50;99.90
15357;DHT22;7778;48.792;9.260;2022-12-29T03:49:28;10.70;99.90
15357;DHT22;7778;48.792;9.260;2022-12-29T03:52:14;10.60;99.90
15357;DHT22;7778;48.792;9.260;2022-12-29T03:54:59;10.70;99.90
15357;DHT22;7778;48.792;9.260;2022-12-29T03:57:46;10.70;99.90
15357;DHT22;7778;48.792;9.260;2022-12-29T04:00:32;10.80;99.90
15357;DHT22;7778;48.792;9.260;2022-12-29T04:03:18;10.90;99.90
15357;DHT22;7778;48.792;9.260;2022-12-29T04:06:03;10.80;99.90
15357;DHT22;7778;48.792;9.260;2022-12-29T04:08:53;10.80;99.90
15357;DHT22;7778;48.792;9.260;2022-12-29T04:11:39;10.70;99.90
15357;DHT22;7778;48.792;9.260;2022-12-29T04:14:26;10.60;99.90
15357;DHT22;7778;48.792;9.260;2022-12-29T04:17:11;10.50;99.90
15357;DHT22;7778;48.792;9.260;2022-12-29T04:19:57;10.40;99.90
15357;DHT22;7778;48.792;9.260;2022-12-29T04:23:16;10.40;99.90
15357;DHT22;7778;48.792;9.260;2022-12-29T04:26:02;10.40;99.90
15357;DHT22;7778;48.792;9.260;2022-12-29T04:28:50;10.40;99.90
15357;DHT22;7778;48.792;9.260;2022-12-29T04:31:37;10.40;99.90
15357;DHT22;7778;48.792;9.260;2022-12-29T04:34:22;10.40;99.90
15357;DHT22;7778;48.792;9.260;2022-12-29T04:37:08;10.50;99.90
15357;DHT22;7778;48.792;9.260;2022-12-29T04:39:53;10.40;99.90
15357;DHT22;7778;48.792;9.260;2022-12-29T04:42:39;10.60;99.90
15357;DHT22;7778;48.792;9.260;2022-12-29T04:45:24;10.50;99.90
15357;DHT22;7778;48.792;9.260;2022-12-29T04:48:11;10.50;99.90
15357;DHT22;7778;48.792;9.260;2022-12-29T04:50:58;10.50;99.90
15357;DHT22;7778;48.792;9.260;2022-12-29T04:53:43;10.50;99.90
15357;DHT22;7778;48.792;9.260;2022-12-29T04:56:29;10.50;99.90
15357;DHT22;7778;48.792;9.260;2022-12-29T04:59:14;10.50;99.90
15357;DHT22;7778;48.792;9.260;2022-12-29T05:02:00;10.60;99.90
15357;DHT22;7778;48.792;9.260;2022-12-29T05:04:47;10.60;99.90
15357;DHT22;7778;48.792;9.260;2022-12-29T05:07:32;10.50;99.90
15357;DHT22;7778;48.792;9.260;2022-12-29T05:10:18;10.50;99.90
15357;DHT22;7778;48.792;9.260;2022-12-29T05:13:03;10.60;99.90
15357;DHT22;7778;48.792;9.260;2022-12-29T05:15:50;10.50;99.90
15357;DHT22;7778;48.792;9.260;2022-12-29T05:18:35;10.60;99.90
15357;DHT22;7778;48.792;9.260;2022-12-29T05:21:22;10.50;99.90
15357;DHT22;7778;48.792;9.260;2022-12-29T05:24:08;10.50;99.90
15357;DHT22;7778;48.792;9.260;2022-12-29T05:26:53;10.50;99.90
15357;DHT22;7778;48.792;9.260;2022-12-29T05:29:39;10.50;99.90
15357;DHT22;7778;48.792;9.260;2022-12-29T05:32:24;10.50;99.90
15357;DHT22;7778;48.792;9.260;2022-12-29T05:35:10;10.60;99.90
15357;DHT22;7778;48.792;9.260;2022-12-29T05:37:57;10.50;99.90
15357;DHT22;7778;48.792;9.260;2022-12-29T05:40:43;10.60;99.90
15357;DHT22;7778;48.792;9.260;2022-12-29T05:43:28;10.50;99.90
15357;DHT22;7778;48.792;9.260;2022-12-29T05:46:16;10.50;99.90
15357;DHT22;7778;48.792;9.260;2022-12-29T05:49:04;10.40;99.90
15357;DHT22;7778;48.792;9.260;2022-12-29T05:51:50;10.40;99.90
15357;DHT22;7778;48.792;9.260;2022-12-29T05:54:37;10.40;99.90
15357;DHT22;7778;48.792;9.260;2022-12-29T05:57:22;10.30;99.90
15357;DHT22;7778;48.792;9.260;2022-12-29T06:00:09;10.30;99.90
15357;DHT22;7778;48.792;9.260;2022-12-29T06:02:55;10.30;99.90
15357;DHT22;7778;48.792;9.260;2022-12-29T06:05:41;10.20;99.90
15357;DHT22;7778;48.792;9.260;2022-12-29T06:08:26;10.30;99.90
15357;DHT22;7778;48.792;9.260;2022-12-29T06:11:13;10.20;99.90
15357;DHT22;7778;48.792;9.260;2022-12-29T06:13:58;10.20;99.90
15357;DHT22;7778;48.792;9.260;2022-12-29T06:16:44;10.30;99.90
15357;DHT22;7778;48.792;9.260;2022-12-29T06:19:29;10.40;99.90
15357;DHT22;7778;48.792;9.260;2022-12-29T06:22:15;10.50;99.90
15357;DHT22;7778;48.792;9.260;2022-12-29T06:25:00;10.60;99.90
15357;DHT22;7778;48.792;9.260;2022-12-29T06:27:47;10.60;99.90
15357;DHT22;7778;48.792;9.260;2022-12-29T06:30:33;10.50;99.90
15357;DHT22;7778;48.792;9.260;2022-12-29T06:33:18;10.50;99.90
15357;DHT22;7778;48.792;9.260;2022-12-29T06:36:05;10.40;99.90
15357;DHT22;7778;48.792;9.260;2022-12-29T06:38:51;10.40;99.90
15357;DHT22;7778;48.792;9.260;2022-12-29T06:41:37;10.30;99.90
15357;DHT22;7778;48.792;9.260;2022-12-29T06:44:24;10.40;99.90
15357;DHT22;7778;48.792;9.260;2022-12-29T06:47:10;10.40;99.90
15357;DHT22;7778;48.792;9.260;2022-12-29T06:49:56;10.50;99.90
15357;DHT22;7778;48.792;9.260;2022-12-29T06:52:41;10.50;99.90
15357;DHT22;7778;48.792;9.260;2022-12-29T06:55:27;10.50;99.90
15357;DHT22;7778;48.792;9.260;2022-12-29T06:58:13;10.50;99.90
15357;DHT22;7778;48.792;9.260;2022-12-29T07:01:00;10.50;99.90
15357;DHT22;7778;48.792;9.260;2022-12-29T07:03:46;10.50;99.90
15357;DHT22;7778;48.792;9.260;2022-12-29T07:06:31;10.50;99.90
15357;DHT22;7778;48.792;9.260;2022-12-29T07:09:17;10.50;99.90
15357;DHT22;7778;48.792;9.260;2022-12-29T07:12:03;10.50;99.90
15357;DHT22;7778;48.792;9.260;2022-12-29T07:14:50;10.50;99.90
15357;DHT22;7778;48.792;9.260;2022-12-29T07:17:37;10.60;99.90
15357;DHT22;7778;48.792;9.260;2022-12-29T07:20:22;10.50;99.90
15357;DHT22;7778;48.792;9.260;2022-12-29T07:23:08;10.50;99.90
15357;DHT22;7778;48.792;9.260;2022-12-29T07:25:59;10.40;99.90
15357;DHT22;7778;48.792;9.260;2022-12-29T07:28:45;10.40;99.90
15357;DHT22;7778;48.792;9.260;2022-12-29T07:31:31;10.40;99.90
15357;DHT22;7778;48.792;9.260;2022-12-29T07:34:18;10.40;99.90
15357;DHT22;7778;48.792;9.260;2022-12-29T07:37:03;10.30;99.90
15357;DHT22;7778;48.792;9.260;2022-12-29T07:39:49;10.30;99.90
15357;DHT22;7778;48.792;9.260;2022-12-29T07:42:34;10.30;99.90
15357;DHT22;7778;48.792;9.260;2022-12-29T07:45:20;10.20;99.90
15357;DHT22;7778;48.792;9.260;2022-12-29T07:48:06;10.30;99.90
15357;DHT22;7778;48.792;9.260;2022-12-29T07:50:53;10.30;99.90
15357;DHT22;7778;48.792;9.260;2022-12-29T07:53:39;10.40;99.90
15357;DHT22;7778;48.792;9.260;2022-12-29T07:56:24;10.40;99.90
15357;DHT22;7778;48.792;9.260;2022-12-29T07:59:10;10.40;99.90
15357;DHT22;7778;48.792;9.260;2022-12-29T08:01:57;10.60;99.90
15357;DHT22;7778;48.792;9.260;2022-12-29T08:04:42;10.60;99.90
15357;DHT22;7778;48.792;9.260;2022-12-29T08:07:29;10.70;99.90
15357;DHT22;7778;48.792;9.260;2022-12-29T08:10:16;10.80;99.90
15357;DHT22;7778;48.792;9.260;2022-12-29T08:13:01;10.90;99.90
15357;DHT22;7778;48.792;9.260;2022-12-29T08:15:47;11.00;99.90
15357;DHT22;7778;48.792;9.260;2022-12-29T08:18:32;11.10;99.90
15357;DHT22;7778;48.792;9.260;2022-12-29T08:21:18;11.20;99.90
15357;DHT22;7778;48.792;9.260;2022-12-29T08:24:05;11.30;99.90
15357;DHT22;7778;48.792;9.260;2022-12-29T08:26:51;11.40;99.90
15357;DHT22;7778;48.792;9.260;2022-12-29T08:29:37;11.40;99.90
15357;DHT22;7778;48.792;9.260;2022-12-29T08:32:23;11.40;99.90
15357;DHT22;7778;48.792;9.260;2022-12-29T08:35:08;11.50;99.90
15357;DHT22;7778;48.792;9.260;2022-12-29T08:37:54;11.50;99.90
15357;DHT22;7778;48.792;9.260;2022-12-29T08:40:41;11.50;99.90
15357;DHT22;7778;48.792;9.260;2022-12-29T08:43:27;11.60;99.90
15357;DHT22;7778;48.792;9.260;2022-12-29T08:46:13;11.70;99.90
15357;DHT22;7778;48.792;9.260;2022-12-29T08:48:59;11.70;99.90
15357;DHT22;7778;48.792;9.260;2022-12-29T08:51:44;11.80;99.90
15357;DHT22;7778;48.792;9.260;2022-12-29T08:54:30;11.80;99.90
15357;DHT22;7778;48.792;9.260;2022-12-29T08:57:17;11.90;99.90
15357;DHT22;7778;48.792;9.260;2022-12-29T09:00:04;12.00;99.90
15357;DHT22;7778;48.792;9.260;2022-12-29T09:02:50;12.00;99.90
15357;DHT22;7778;48.792;9.260;2022-12-29T09:05:36;12.00;99.90
15357;DHT22;7778;48.792;9.260;2022-12-29T09:08:22;11.90;99.90
15357;DHT22;7778;48.792;9.260;2022-12-29T09:11:09;11.90;99.90
15357;DHT22;7778;48.792;9.260;2022-12-29T09:13:58;12.00;99.90
15357;DHT22;7778;48.792;9.260;2022-12-29T09:16:43;12.00;99.90
15357;DHT22;7778;48.792;9.260;2022-12-29T09:19:47;12.00;99.90
15357;DHT22;7778;48.792;9.260;2022-12-29T09:22:33;12.00;99.90
15357;DHT22;7778;48.792;9.260;2022-12-29T09:25:18;12.10;99.90
15357;DHT22;7778;48.792;9.260;2022-12-29T09:28:04;12.10;99.90
15357;DHT22;7778;48.792;9.260;2022-12-29T09:30:53;12.00;99.90
15357;DHT22;7778;48.792;9.260;2022-12-29T09:33:38;12.10;99.90
15357;DHT22;7778;48.792;9.260;2022-12-29T09:36:24;12.20;99.90
15357;DHT22;7778;48.792;9.260;2022-12-29T09:39:09;12.20;99.90
15357;DHT22;7778;48.792;9.260;2022-12-29T09:42:00;12.20;99.90
15357;DHT22;7778;48.792;9.260;2022-12-29T09:44:56;12.30;99.90
15357;DHT22;7778;48.792;9.260;2022-12-29T09:47:51;12.30;99.90
15357;DHT22;7778;48.792;9.260;2022-12-29T09:50:37;12.40;99.90
15357;DHT22;7778;48.792;9.260;2022-12-29T09:53:28;12.40;99.90
15357;DHT22;7778;48.792;9.260;2022-12-29T09:56:19;12.50;99.90
15357;DHT22;7778;48.792;9.260;2022-12-29T09:59:12;12.50;99.90
15357;DHT22;7778;48.792;9.260;2022-12-29T10:02:10;12.60;99.90
15357;DHT22;7778;48.792;9.260;2022-12-29T10:05:03;12.80;99.90
15357;DHT22;7778;48.792;9.260;2022-12-29T10:07:54;13.00;99.90
15357;DHT22;7778;48.792;9.260;2022-12-29T10:10:50;13.00;99.90
15357;DHT22;7778;48.792;9.260;2022-12-29T10:13:48;12.90;99.90
15357;DHT22;7778;48.792;9.260;2022-12-29T10:16:49;12.90;99.90
15357;DHT22;7778;48.792;9.260;2022-12-29T10:19:50;12.70;99.90
15357;DHT22;7778;48.792;9.260;2022-12-29T10:22:56;12.70;99.90
15357;DHT22;7778;48.792;9.260;2022-12-29T10:25:47;12.70;99.90
15357;DHT22;7778;48.792;9.260;2022-12-29T10:28:37;12.60;99.90
15357;DHT22;7778;48.792;9.260;2022-12-29T10:31:32;12.70;99.90
15357;DHT22;7778;48.792;9.260;2022-12-29T10:34:22;12.80;99.90
15357;DHT22;7778;48.792;9.260;2022-12-29T10:37:14;12.80;99.90
15357;DHT22;7778;48.792;9.260;2022-12-29T10:40:18;12.80;99.90
15357;DHT22;7778;48.792;9.260;2022-12-29T10:43:22;12.80;99.90
15357;DHT22;7778;48.792;9.260;2022-12-29T10:46:13;12.90;99.90
15357;DHT22;7778;48.792;9.260;2022-12-29T10:49:00;13.10;99.90
15357;DHT22;7778;48.792;9.260;2022-12-29T10:51:47;13.30;99.90
15357;DHT22;7778;48.792;9.260;2022-12-29T10:54:39;13.30;99.90
15357;DHT22;7778;48.792;9.260;2022-12-29T10:57:32;13.50;99.90
15357;DHT22;7778;48.792;9.260;2022-12-29T11:00:21;13.60;99.90
15357;DHT22;7778;48.792;9.260;2022-12-29T11:06:36;15.70;99.90
15357;DHT22;7778;48.792;9.260;2022-12-29T11:09:26;16.30;99.90
15357;DHT22;7778;48.792;9.260;2022-12-29T11:12:19;15.60;99.90
15357;DHT22;7778;48.792;9.260;2022-12-29T11:15:14;15.00;99.90
15357;DHT22;7778;48.792;9.260;2022-12-29T11:18:00;14.60;99.90
15357;DHT22;7778;48.792;9.260;2022-12-29T11:20:47;14.30;99.90
15357;DHT22;7778;48.792;9.260;2022-12-29T11:23:35;14.00;99.90
15357;DHT22;7778;48.792;9.260;2022-12-29T11:26:23;13.90;99.90
15357;DHT22;7778;48.792;9.260;2022-12-29T11:29:24;13.70;99.90
15357;DHT22;7778;48.792;9.260;2022-12-29T11:32:17;13.60;99.90
15357;DHT22;7778;48.792;9.260;2022-12-29T11:35:04;13.70;99.90
15357;DHT22;7778;48.792;9.260;2022-12-29T11:37:56;13.50;99.90
15357;DHT22;7778;48.792;9.260;2022-12-29T11:40:43;13.50;99.90
15357;DHT22;7778;48.792;9.260;2022-12-29T11:43:31;13.50;99.90
15357;DHT22;7778;48.792;9.260;2022-12-29T11:46:20;13.60;99.90
15357;DHT22;7778;48.792;9.260;2022-12-29T11:49:12;13.60;99.90
15357;DHT22;7778;48.792;9.260;2022-12-29T11:51:59;13.50;99.90
15357;DHT22;7778;48.792;9.260;2022-12-29T11:54:46;13.50;99.90
15357;DHT22;7778;48.792;9.260;2022-12-29T11:57:33;13.40;99.90
15357;DHT22;7778;48.792;9.260;2022-12-29T12:00:21;13.30;99.90
15357;DHT22;7778;48.792;9.260;2022-12-29T12:03:13;13.20;99.90
15357;DHT22;7778;48.792;9.260;2022-12-29T12:06:03;13.00;99.90
15357;DHT22;7778;48.792;9.260;2022-12-29T12:08:54;12.90;99.90
15357;DHT22;7778;48.792;9.260;2022-12-29T12:11:42;12.80;99.90
15357;DHT22;7778;48.792;9.260;2022-12-29T12:14:31;12.80;99.90
15357;DHT22;7778;48.792;9.260;2022-12-29T12:17:24;12.70;99.90
15357;DHT22;7778;48.792;9.260;2022-12-29T12:20:21;12.80;99.90
15357;DHT22;7778;48.792;9.260;2022-12-29T12:23:24;12.80;99.90
15357;DHT22;7778;48.792;9.260;2022-12-29T12:26:15;12.70;99.90
15357;DHT22;7778;48.792;9.260;2022-12-29T12:29:08;12.60;99.90
15357;DHT22;7778;48.792;9.260;2022-12-29T12:31:59;12.70;99.90
15357;DHT22;7778;48.792;9.260;2022-12-29T12:34:48;12.60;99.90
15357;DHT22;7778;48.792;9.260;2022-12-29T12:37:57;12.70;99.90
15357;DHT22;7778;48.792;9.260;2022-12-29T12:41:08;12.80;99.90
15357;DHT22;7778;48.792;9.260;2022-12-29T12:44:00;12.90;99.90
15357;DHT22;7778;48.792;9.260;2022-12-29T12:47:25;13.00;99.90
15357;DHT22;7778;48.792;9.260;2022-12-29T12:50:35;13.10;99.90
15357;DHT22;7778;48.792;9.260;2022-12-29T12:53:39;12.90;99.90
15357;DHT22;7778;48.792;9.260;2022-12-29T12:56:51;12.80;99.90
15357;DHT22;7778;48.792;9.260;2022-12-29T12:59:50;12.80;99.90
15357;DHT22;7778;48.792;9.260;2022-12-29T13:02:47;12.80;99.90
15357;DHT22;7778;48.792;9.260;2022-12-29T13:05:50;12.90;99.90
15357;DHT22;7778;48.792;9.260;2022-12-29T13:09:17;13.00;99.90
15357;DHT22;7778;48.792;9.260;2022-12-29T13:12:20;13.30;99.90
15357;DHT22;7778;48.792;9.260;2022-12-29T13:15:20;13.30;99.90
15357;DHT22;7778;48.792;9.260;2022-12-29T13:18:21;13.20;99.90
15357;DHT22;7778;48.792;9.260;2022-12-29T13:21:15;13.10;99.90
15357;DHT22;7778;48.792;9.260;2022-12-29T13:24:15;13.00;99.90
15357;DHT22;7778;48.792;9.260;2022-12-29T13:27:06;12.80;99.90
15357;DHT22;7778;48.792;9.260;2022-12-29T13:30:03;12.90;99.90
15357;DHT22;7778;48.792;9.260;2022-12-29T13:32:56;12.80;99.90
15357;DHT22;7778;48.792;9.260;2022-12-29T13:35:59;12.80;99.90
15357;DHT22;7778;48.792;9.260;2022-12-29T13:38:48;12.90;99.90
15357;DHT22;7778;48.792;9.260;2022-12-29T13:41:40;12.80;99.90
15357;DHT22;7778;48.792;9.260;2022-12-29T13:44:32;12.70;99.90
15357;DHT22;7778;48.792;9.260;2022-12-29T13:47:26;12.70;99.90
15357;DHT22;7778;48.792;9.260;2022-12-29T13:50:17;12.50;99.90
15357;DHT22;7778;48.792;9.260;2022-12-29T13:53:10;12.60;99.90
15357;DHT22;7778;48.792;9.260;2022-12-29T13:56:06;12.60;99.90
15357;DHT22;7778;48.792;9.260;2022-12-29T13:58:55;12.50;99.90
15357;DHT22;7778;48.792;9.260;2022-12-29T14:01:50;12.60;99.90
15357;DHT22;7778;48.792;9.260;2022-12-29T14:04:55;12.50;99.90
15357;DHT22;7778;48.792;9.260;2022-12-29T14:07:42;12.40;99.90
15357;DHT22;7778;48.792;9.260;2022-12-29T14:10:32;12.40;99.90
15357;DHT22;7778;48.792;9.260;2022-12-29T14:13:21;12.40;99.90
15357;DHT22;7778;48.792;9.260;2022-12-29T14:16:21;12.50;99.90
15357;DHT22;7778;48.792;9.260;2022-12-29T14:19:17;12.70;99.90
15357;DHT22;7778;48.792;9.260;2022-12-29T14:22:07;12.70;99.90
15357;DHT22;7778;48.792;9.260;2022-12-29T14:24:53;12.60;99.90
15357;DHT22;7778;48.792;9.260;2022-12-29T14:27:52;12.60;99.90
15357;DHT22;7778;48.792;9.260;2022-12-29T14:30:50;12.60;99.90
15357;DHT22;7778;48.792;9.260;2022-12-29T14:33:37;12.50;99.90
15357;DHT22;7778;48.792;9.260;2022-12-29T14:36:33;12.40;99.90
15357;DHT22;7778;48.792;9.260;2022-12-29T14:39:35;12.30;99.90
15357;DHT22;7778;48.792;9.260;2022-12-29T14:42:22;12.30;99.90
15357;DHT22;7778;48.792;9.260;2022-12-29T14:45:26;12.40;99.90
15357;DHT22;7778;48.792;9.260;2022-12-29T14:48:39;12.30;99.90
15357;DHT22;7778;48.792;9.260;2022-12-29T14:51:31;12.20;99.90
15357;DHT22;7778;48.792;9.260;2022-12-29T14:54:43;12.10;99.90
15357;DHT22;7778;48.792;9.260;2022-12-29T14:57:35;11.90;99.90
15357;DHT22;7778;48.792;9.260;2022-12-29T15:00:25;11.80;99.90
15357;DHT22;7778;48.792;9.260;2022-12-29T15:03:18;11.90;99.90
15357;DHT22;7778;48.792;9.260;2022-12-29T15:06:07;12.00;99.90
15357;DHT22;7778;48.792;9.260;2022-12-29T15:09:01;11.90;99.90
15357;DHT22;7778;48.792;9.260;2022-12-29T15:11:53;11.90;99.90
15357;DHT22;7778;48.792;9.260;2022-12-29T15:14:49;11.70;99.90
15357;DHT22;7778;48.792;9.260;2022-12-29T15:17:36;11.70;99.90
15357;DHT22;7778;48.792;9.260;2022-12-29T15:20:25;11.70;99.90
15357;DHT22;7778;48.792;9.260;2022-12-29T15:23:13;11.70;99.90
15357;DHT22;7778;48.792;9.260;2022-12-29T15:26:04;11.70;99.90
15357;DHT22;7778;48.792;9.260;2022-12-29T15:28:51;11.70;99.90
15357;DHT22;7778;48.792;9.260;2022-12-29T15:31:46;11.70;99.90
